SXN55A EGLF-EBLG
Flight info
| Callsign | SXN55A |
|---|---|
| Flight time | 0h 54m |
| Altitude | 23000 |
| Route | GWC N16 BIG Q70 KOK |
| Aircraft | E55P/M-SBDFGHJ2RWY/LB2 |
Departure
| Time | 2026-04-25 19:12 |
|---|---|
| Airport | Farnborough Airport (EGLF) |
Arrival
| Time | 2026-04-25 20:06 |
|---|---|
| Airport | Liège Airport (EBLG) |
| Time | Latitude | Longitude | Altitude | Speed | Heading |
|---|---|---|---|---|---|
| 2026-04-25 18:38 | 51.27983 | -0.77279 | 259 ft | 0 kts | 333° |
| 2026-04-25 18:52 | 51.27984 | -0.77280 | 258 ft | 0 kts | 333° |
| 2026-04-25 18:52 | 51.28000 | -0.77296 | 258 ft | 5 kts | 337° |
| 2026-04-25 18:52 | 51.28031 | -0.77322 | 258 ft | 5 kts | 304° |
| 2026-04-25 18:52 | 51.28028 | -0.77368 | 258 ft | 5 kts | 258° |
| 2026-04-25 18:53 | 51.28019 | -0.77438 | 259 ft | 8 kts | 260° |
| 2026-04-25 18:53 | 51.28052 | -0.77511 | 259 ft | 10 kts | 347° |
| 2026-04-25 18:53 | 51.28115 | -0.77520 | 259 ft | 11 kts | 356° |
| 2026-04-25 18:53 | 51.28187 | -0.77534 | 259 ft | 11 kts | 353° |
| 2026-04-25 18:54 | 51.28175 | -0.77714 | 259 ft | 11 kts | 215° |
| 2026-04-25 18:54 | 51.28114 | -0.77782 | 259 ft | 11 kts | 215° |
| 2026-04-25 18:54 | 51.28049 | -0.77851 | 259 ft | 11 kts | 200° |
| 2026-04-25 18:55 | 51.27976 | -0.77876 | 259 ft | 11 kts | 185° |
| 2026-04-25 18:55 | 51.27905 | -0.77926 | 259 ft | 11 kts | 215° |
| 2026-04-25 18:55 | 51.27839 | -0.78000 | 259 ft | 12 kts | 217° |
| 2026-04-25 18:55 | 51.27775 | -0.78077 | 259 ft | 12 kts | 216° |
| 2026-04-25 18:56 | 51.27760 | -0.78094 | 259 ft | 12 kts | 216° |
| 2026-04-25 19:01 | 51.27651 | -0.78247 | 259 ft | 12 kts | 233° |
| 2026-04-25 19:01 | 51.27591 | -0.78334 | 259 ft | 12 kts | 220° |
| 2026-04-25 19:01 | 51.27535 | -0.78413 | 259 ft | 12 kts | 220° |
| 2026-04-25 19:01 | 51.27476 | -0.78492 | 259 ft | 12 kts | 219° |
| 2026-04-25 19:02 | 51.27350 | -0.78664 | 259 ft | 12 kts | 220° |
| 2026-04-25 19:02 | 51.27308 | -0.78748 | 259 ft | 12 kts | 245° |
| 2026-04-25 19:02 | 51.27261 | -0.78894 | 259 ft | 13 kts | 241° |
| 2026-04-25 19:03 | 51.27200 | -0.79074 | 259 ft | 13 kts | 243° |
| 2026-04-25 19:03 | 51.27169 | -0.79156 | 259 ft | 0 kts | 217° |
| 2026-04-25 19:10 | 51.27169 | -0.79157 | 259 ft | 0 kts | 217° |
| 2026-04-25 19:10 | 51.27157 | -0.79168 | 259 ft | 5 kts | 202° |
| 2026-04-25 19:11 | 51.27107 | -0.79163 | 259 ft | 10 kts | 150° |
| 2026-04-25 19:11 | 51.27118 | -0.79016 | 259 ft | 37 kts | 60° |
| 2026-04-25 19:11 | 51.27298 | -0.78473 | 259 ft | 97 kts | 60° |
| 2026-04-25 19:11 | 51.27780 | -0.77080 | 423 ft | 148 kts | 61° |
| 2026-04-25 19:12 | 51.28307 | -0.75483 | 678 ft | 189 kts | 61° |
| 2026-04-25 19:12 | 51.28836 | -0.73831 | 1215 ft | 195 kts | 64° |
| 2026-04-25 19:12 | 51.29491 | -0.71783 | 1683 ft | 197 kts | 61° |
| 2026-04-25 19:12 | 51.30151 | -0.69825 | 2082 ft | 209 kts | 62° |
| 2026-04-25 19:13 | 51.30397 | -0.67957 | 2747 ft | 216 kts | 95° |
| 2026-04-25 19:13 | 51.29692 | -0.65813 | 2994 ft | 206 kts | 141° |
| 2026-04-25 19:13 | 51.28396 | -0.64854 | 3037 ft | 206 kts | 154° |
| 2026-04-25 19:13 | 51.27326 | -0.64028 | 3036 ft | 207 kts | 150° |
| 2026-04-25 19:14 | 51.26120 | -0.63110 | 3026 ft | 209 kts | 161° |
| 2026-04-25 19:14 | 51.24960 | -0.63122 | 3041 ft | 211 kts | 199° |
| 2026-04-25 19:14 | 51.23712 | -0.65048 | 3092 ft | 224 kts | 248° |
| 2026-04-25 19:14 | 51.23215 | -0.66830 | 3505 ft | 240 kts | 244° |
| 2026-04-25 19:15 | 51.22303 | -0.69651 | 4714 ft | 235 kts | 243° |
| 2026-04-25 19:15 | 51.21563 | -0.71905 | 4969 ft | 227 kts | 243° |
| 2026-04-25 19:15 | 51.20964 | -0.73686 | 5014 ft | 227 kts | 239° |
| 2026-04-25 19:15 | 51.19974 | -0.75966 | 5028 ft | 230 kts | 236° |
| 2026-04-25 19:16 | 51.19045 | -0.78100 | 5027 ft | 232 kts | 236° |
| 2026-04-25 19:16 | 51.18203 | -0.80031 | 5027 ft | 234 kts | 236° |
| 2026-04-25 19:16 | 51.17271 | -0.82167 | 5029 ft | 236 kts | 236° |
| 2026-04-25 19:16 | 51.16300 | -0.84395 | 5356 ft | 254 kts | 236° |
| 2026-04-25 19:17 | 51.15438 | -0.86366 | 6435 ft | 242 kts | 236° |
| 2026-04-25 19:17 | 51.14527 | -0.88445 | 7547 ft | 233 kts | 236° |
| 2026-04-25 19:17 | 51.13591 | -0.90587 | 8397 ft | 237 kts | 236° |
| 2026-04-25 19:17 | 51.12727 | -0.92579 | 9112 ft | 242 kts | 239° |
| 2026-04-25 19:18 | 51.12094 | -0.94642 | 9805 ft | 245 kts | 248° |
| 2026-04-25 19:18 | 51.11324 | -0.97339 | 10742 ft | 246 kts | 246° |
| 2026-04-25 19:18 | 51.08899 | -1.00608 | 12145 ft | 264 kts | 189° |
| 2026-04-25 19:19 | 51.06660 | -1.00087 | 12264 ft | 289 kts | 165° |
| 2026-04-25 19:19 | 51.04696 | -0.99484 | 12257 ft | 293 kts | 171° |
| 2026-04-25 19:19 | 51.03138 | -0.99079 | 12251 ft | 295 kts | 172° |
| 2026-04-25 19:19 | 51.02633 | -0.98942 | 12259 ft | 294 kts | 169° |
| 2026-04-25 19:20 | 51.00025 | -0.95020 | 13867 ft | 283 kts | 101° |
| 2026-04-25 19:20 | 51.00074 | -0.92250 | 14837 ft | 270 kts | 73° |
| 2026-04-25 19:20 | 51.00499 | -0.89942 | 15351 ft | 276 kts | 71° |
| 2026-04-25 19:20 | 51.01130 | -0.86534 | 15980 ft | 288 kts | 71° |
| 2026-04-25 19:21 | 51.01689 | -0.83488 | 16651 ft | 292 kts | 71° |
| 2026-04-25 19:21 | 51.02644 | -0.78091 | 17840 ft | 298 kts | 71° |
| 2026-04-25 19:21 | 51.03282 | -0.74426 | 18584 ft | 303 kts | 71° |
| 2026-04-25 19:22 | 51.03764 | -0.71661 | 19152 ft | 305 kts | 71° |
| 2026-04-25 19:22 | 51.04133 | -0.69540 | 19588 ft | 307 kts | 71° |
| 2026-04-25 19:22 | 51.05492 | -0.61793 | 21135 ft | 313 kts | 71° |
| 2026-04-25 19:23 | 51.05961 | -0.59123 | 21643 ft | 315 kts | 71° |
| 2026-04-25 19:23 | 51.07106 | -0.52636 | 22821 ft | 320 kts | 71° |
| 2026-04-25 19:23 | 51.07784 | -0.48830 | 23198 ft | 334 kts | 71° |
| 2026-04-25 19:24 | 51.08244 | -0.46267 | 23247 ft | 348 kts | 71° |
| 2026-04-25 19:24 | 51.08799 | -0.43208 | 23254 ft | 365 kts | 71° |
| 2026-04-25 19:24 | 51.10338 | -0.34775 | 23253 ft | 403 kts | 72° |
| 2026-04-25 19:25 | 51.11382 | -0.29089 | 23251 ft | 422 kts | 72° |
| 2026-04-25 19:25 | 51.12266 | -0.24286 | 23248 ft | 436 kts | 71° |
| 2026-04-25 19:25 | 51.13193 | -0.19237 | 23251 ft | 442 kts | 72° |
| 2026-04-25 19:26 | 51.13967 | -0.15036 | 23237 ft | 437 kts | 72° |
| 2026-04-25 19:26 | 51.14590 | -0.11635 | 23235 ft | 432 kts | 71° |
| 2026-04-25 19:26 | 51.15501 | -0.06661 | 23235 ft | 427 kts | 72° |
| 2026-04-25 19:26 | 51.16389 | -0.01806 | 23229 ft | 422 kts | 71° |
| 2026-04-25 19:27 | 51.17050 | 0.01813 | 23231 ft | 419 kts | 71° |
| 2026-04-25 19:27 | 51.17242 | 0.02866 | 23229 ft | 418 kts | 71° |
| 2026-04-25 19:27 | 51.18564 | 0.10090 | 23224 ft | 412 kts | 71° |
| 2026-04-25 19:27 | 51.19443 | 0.14805 | 23221 ft | 409 kts | 69° |
| 2026-04-25 19:28 | 51.20240 | 0.18201 | 23224 ft | 406 kts | 67° |
| 2026-04-25 19:28 | 51.20940 | 0.21159 | 23224 ft | 405 kts | 66° |
| 2026-04-25 19:28 | 51.21951 | 0.25286 | 23228 ft | 403 kts | 66° |
| 2026-04-25 19:28 | 51.22932 | 0.29270 | 23228 ft | 401 kts | 66° |
| 2026-04-25 19:29 | 51.23832 | 0.32925 | 23236 ft | 400 kts | 66° |
| 2026-04-25 19:29 | 51.24524 | 0.35730 | 23230 ft | 399 kts | 66° |
| 2026-04-25 19:29 | 51.25526 | 0.39804 | 23222 ft | 397 kts | 66° |
| 2026-04-25 19:29 | 51.26584 | 0.44108 | 23224 ft | 396 kts | 66° |
| 2026-04-25 19:30 | 51.27549 | 0.48046 | 23222 ft | 395 kts | 66° |
| 2026-04-25 19:30 | 51.28277 | 0.51024 | 23224 ft | 394 kts | 66° |
| 2026-04-25 19:30 | 51.29282 | 0.55133 | 23222 ft | 393 kts | 66° |
| 2026-04-25 19:30 | 51.30280 | 0.59867 | 23193 ft | 395 kts | 78° |
| 2026-04-25 19:31 | 51.30268 | 0.64086 | 23237 ft | 395 kts | 92° |
| 2026-04-25 19:31 | 51.30156 | 0.66991 | 23225 ft | 395 kts | 92° |
| 2026-04-25 19:31 | 51.29958 | 0.72272 | 23217 ft | 394 kts | 92° |
| 2026-04-25 19:31 | 51.29748 | 0.77962 | 23218 ft | 393 kts | 92° |
| 2026-04-25 19:32 | 51.29619 | 0.81478 | 23217 ft | 393 kts | 92° |
| 2026-04-25 19:32 | 51.29460 | 0.85771 | 23221 ft | 392 kts | 92° |
| 2026-04-25 19:32 | 51.29217 | 0.92258 | 23217 ft | 391 kts | 92° |
| 2026-04-25 19:32 | 51.29126 | 0.94672 | 23218 ft | 391 kts | 92° |
| 2026-04-25 19:33 | 51.28856 | 1.01688 | 23224 ft | 390 kts | 92° |
| 2026-04-25 19:33 | 51.28628 | 1.07557 | 23230 ft | 390 kts | 92° |
| 2026-04-25 19:33 | 51.28468 | 1.11630 | 23234 ft | 389 kts | 92° |
| 2026-04-25 19:33 | 51.28309 | 1.15655 | 23235 ft | 389 kts | 92° |
| 2026-04-25 19:34 | 51.28133 | 1.20072 | 23235 ft | 389 kts | 92° |
| 2026-04-25 19:34 | 51.27969 | 1.24137 | 23235 ft | 389 kts | 92° |
| 2026-04-25 19:34 | 51.27806 | 1.28143 | 23236 ft | 389 kts | 92° |
| 2026-04-25 19:34 | 51.27623 | 1.32583 | 23237 ft | 389 kts | 92° |
| 2026-04-25 19:35 | 51.27451 | 1.36752 | 23237 ft | 389 kts | 92° |
| 2026-04-25 19:35 | 51.27280 | 1.40877 | 23238 ft | 389 kts | 92° |
| 2026-04-25 19:35 | 51.27084 | 1.45162 | 23233 ft | 389 kts | 96° |
| 2026-04-25 19:35 | 51.26575 | 1.49234 | 23242 ft | 389 kts | 101° |
| 2026-04-25 19:36 | 51.26053 | 1.53253 | 23240 ft | 389 kts | 101° |
| 2026-04-25 19:36 | 51.25485 | 1.57467 | 23240 ft | 389 kts | 101° |
| 2026-04-25 19:36 | 51.24942 | 1.61474 | 23240 ft | 389 kts | 101° |
| 2026-04-25 19:36 | 51.24449 | 1.65089 | 23240 ft | 389 kts | 102° |
| 2026-04-25 19:37 | 51.23888 | 1.69201 | 23238 ft | 389 kts | 102° |
| 2026-04-25 19:37 | 51.23292 | 1.73546 | 23238 ft | 389 kts | 102° |
| 2026-04-25 19:37 | 51.22749 | 1.77501 | 23237 ft | 389 kts | 102° |
| 2026-04-25 19:37 | 51.22171 | 1.81692 | 23238 ft | 389 kts | 102° |
| 2026-04-25 19:38 | 51.21591 | 1.85892 | 23238 ft | 389 kts | 102° |
| 2026-04-25 19:38 | 51.21020 | 1.90010 | 23237 ft | 389 kts | 102° |
| 2026-04-25 19:38 | 51.20442 | 1.94174 | 23238 ft | 389 kts | 102° |
| 2026-04-25 19:38 | 51.19860 | 1.98342 | 23238 ft | 389 kts | 102° |
| 2026-04-25 19:39 | 51.19298 | 2.02353 | 23236 ft | 389 kts | 102° |
| 2026-04-25 19:39 | 51.18713 | 2.06527 | 23238 ft | 389 kts | 102° |
| 2026-04-25 19:39 | 51.18130 | 2.10675 | 23237 ft | 389 kts | 102° |
| 2026-04-25 19:39 | 51.17582 | 2.14567 | 23237 ft | 389 kts | 102° |
| 2026-04-25 19:40 | 51.16969 | 2.18909 | 23238 ft | 389 kts | 102° |
| 2026-04-25 19:40 | 51.16388 | 2.23007 | 23239 ft | 389 kts | 102° |
| 2026-04-25 19:40 | 51.15825 | 2.26971 | 23238 ft | 389 kts | 102° |
| 2026-04-25 19:40 | 51.15221 | 2.31211 | 23239 ft | 389 kts | 102° |
| 2026-04-25 19:41 | 51.14631 | 2.35341 | 23239 ft | 389 kts | 102° |
| 2026-04-25 19:41 | 51.14058 | 2.39332 | 23241 ft | 389 kts | 102° |
| 2026-04-25 19:41 | 51.13454 | 2.43544 | 23241 ft | 389 kts | 102° |
| 2026-04-25 19:41 | 51.13252 | 2.44946 | 23242 ft | 389 kts | 102° |
| 2026-04-25 19:42 | 51.12322 | 2.51394 | 23240 ft | 389 kts | 102° |
| 2026-04-25 19:42 | 51.11682 | 2.55815 | 23240 ft | 389 kts | 102° |
| 2026-04-25 19:42 | 51.11096 | 2.59847 | 23243 ft | 389 kts | 102° |
| 2026-04-25 19:42 | 51.10537 | 2.63694 | 23244 ft | 389 kts | 102° |
| 2026-04-25 19:43 | 51.09924 | 2.67893 | 23241 ft | 389 kts | 103° |
| 2026-04-25 19:43 | 51.09317 | 2.72034 | 23236 ft | 389 kts | 103° |
| 2026-04-25 19:43 | 51.08770 | 2.75764 | 23248 ft | 389 kts | 103° |
| 2026-04-25 19:43 | 51.08130 | 2.80104 | 23242 ft | 389 kts | 103° |
| 2026-04-25 19:44 | 51.07520 | 2.84285 | 23239 ft | 389 kts | 103° |
| 2026-04-25 19:44 | 51.06833 | 2.87612 | 23247 ft | 389 kts | 111° |
| 2026-04-25 19:44 | 51.05822 | 2.91942 | 23108 ft | 393 kts | 111° |
| 2026-04-25 19:44 | 51.04844 | 2.96033 | 22864 ft | 399 kts | 111° |
| 2026-04-25 19:45 | 51.03920 | 2.99894 | 22653 ft | 403 kts | 111° |
| 2026-04-25 19:45 | 51.02903 | 3.04130 | 22403 ft | 407 kts | 111° |
| 2026-04-25 19:45 | 51.01889 | 3.08342 | 22161 ft | 410 kts | 111° |
| 2026-04-25 19:45 | 51.00905 | 3.12412 | 21930 ft | 412 kts | 111° |
| 2026-04-25 19:46 | 50.99917 | 3.16501 | 21715 ft | 413 kts | 111° |
| 2026-04-25 19:46 | 50.98889 | 3.20747 | 21472 ft | 414 kts | 111° |
| 2026-04-25 19:46 | 50.97887 | 3.24878 | 21238 ft | 415 kts | 110° |
| 2026-04-25 19:46 | 50.96868 | 3.29063 | 21003 ft | 414 kts | 110° |
| 2026-04-25 19:47 | 50.95827 | 3.33337 | 20758 ft | 414 kts | 110° |
| 2026-04-25 19:47 | 50.94877 | 3.37229 | 20526 ft | 413 kts | 110° |
| 2026-04-25 19:47 | 50.93837 | 3.41484 | 20282 ft | 412 kts | 110° |
| 2026-04-25 19:47 | 50.92803 | 3.45704 | 20033 ft | 411 kts | 110° |
| 2026-04-25 19:48 | 50.91964 | 3.49123 | 19839 ft | 410 kts | 110° |
| 2026-04-25 19:48 | 50.90837 | 3.53707 | 19573 ft | 409 kts | 110° |
| 2026-04-25 19:48 | 50.89843 | 3.57745 | 19331 ft | 407 kts | 110° |
| 2026-04-25 19:48 | 50.88882 | 3.61639 | 19098 ft | 406 kts | 110° |
| 2026-04-25 19:49 | 50.87849 | 3.65815 | 18852 ft | 404 kts | 111° |
| 2026-04-25 19:49 | 50.87512 | 3.67173 | 18768 ft | 403 kts | 111° |
| 2026-04-25 19:49 | 50.85826 | 3.73974 | 18353 ft | 400 kts | 111° |
| 2026-04-25 19:49 | 50.84844 | 3.77919 | 18117 ft | 398 kts | 110° |
| 2026-04-25 19:50 | 50.82857 | 3.85897 | 17619 ft | 394 kts | 110° |
| 2026-04-25 19:50 | 50.81855 | 3.89911 | 17364 ft | 392 kts | 111° |
| 2026-04-25 19:50 | 50.80855 | 3.93904 | 17111 ft | 390 kts | 111° |
| 2026-04-25 19:51 | 50.79909 | 3.97674 | 16867 ft | 388 kts | 111° |
| 2026-04-25 19:51 | 50.78918 | 4.01612 | 16620 ft | 386 kts | 110° |
| 2026-04-25 19:51 | 50.77933 | 4.05526 | 16361 ft | 384 kts | 110° |
| 2026-04-25 19:51 | 50.76982 | 4.09295 | 16063 ft | 384 kts | 110° |
| 2026-04-25 19:52 | 50.76009 | 4.13149 | 15623 ft | 386 kts | 110° |
| 2026-04-25 19:52 | 50.75008 | 4.17106 | 15166 ft | 388 kts | 110° |
| 2026-04-25 19:52 | 50.74035 | 4.20945 | 14768 ft | 385 kts | 110° |
| 2026-04-25 19:52 | 50.73060 | 4.24784 | 14265 ft | 378 kts | 110° |
| 2026-04-25 19:53 | 50.72095 | 4.28579 | 13837 ft | 372 kts | 110° |
| 2026-04-25 19:53 | 50.71167 | 4.32222 | 13427 ft | 367 kts | 110° |
| 2026-04-25 19:53 | 50.70232 | 4.35892 | 13008 ft | 363 kts | 110° |
| 2026-04-25 19:53 | 50.69299 | 4.39540 | 12622 ft | 358 kts | 110° |
| 2026-04-25 19:54 | 50.68430 | 4.42936 | 12271 ft | 353 kts | 110° |
| 2026-04-25 19:54 | 50.67503 | 4.46548 | 11883 ft | 343 kts | 110° |
| 2026-04-25 19:54 | 50.66628 | 4.49956 | 11529 ft | 333 kts | 110° |
| 2026-04-25 19:54 | 50.66343 | 4.51062 | 11376 ft | 330 kts | 110° |
| 2026-04-25 19:55 | 50.64959 | 4.56440 | 10776 ft | 318 kts | 109° |
| 2026-04-25 19:55 | 50.64146 | 4.59587 | 10434 ft | 308 kts | 109° |
| 2026-04-25 19:55 | 50.63375 | 4.62578 | 10102 ft | 301 kts | 109° |
| 2026-04-25 19:55 | 50.62590 | 4.65617 | 9765 ft | 299 kts | 110° |
| 2026-04-25 19:56 | 50.61857 | 4.68457 | 9446 ft | 297 kts | 110° |
| 2026-04-25 19:56 | 50.61135 | 4.71243 | 9121 ft | 296 kts | 110° |
| 2026-04-25 19:56 | 50.60317 | 4.74393 | 8759 ft | 295 kts | 110° |
| 2026-04-25 19:56 | 50.59552 | 4.77341 | 8410 ft | 293 kts | 110° |
| 2026-04-25 19:57 | 50.58863 | 4.79986 | 8090 ft | 292 kts | 110° |
| 2026-04-25 19:57 | 50.58063 | 4.83055 | 7737 ft | 289 kts | 110° |
| 2026-04-25 19:57 | 50.57302 | 4.85968 | 7389 ft | 286 kts | 110° |
| 2026-04-25 19:57 | 50.56574 | 4.88762 | 7031 ft | 282 kts | 110° |
| 2026-04-25 19:58 | 50.55838 | 4.91572 | 6680 ft | 277 kts | 110° |
| 2026-04-25 19:58 | 50.55118 | 4.94325 | 6322 ft | 274 kts | 110° |
| 2026-04-25 19:58 | 50.54414 | 4.97009 | 5978 ft | 270 kts | 110° |
| 2026-04-25 19:58 | 50.53706 | 4.99701 | 5672 ft | 263 kts | 110° |
| 2026-04-25 19:59 | 50.53062 | 5.02156 | 5385 ft | 254 kts | 110° |
| 2026-04-25 19:59 | 50.52396 | 5.04683 | 5076 ft | 247 kts | 109° |
| 2026-04-25 19:59 | 50.51742 | 5.07165 | 4745 ft | 240 kts | 109° |
| 2026-04-25 19:59 | 50.51123 | 5.09512 | 4478 ft | 233 kts | 109° |
| 2026-04-25 20:00 | 50.50531 | 5.11755 | 4265 ft | 225 kts | 109° |
| 2026-04-25 20:00 | 50.50332 | 5.12508 | 4195 ft | 222 kts | 109° |
| 2026-04-25 20:00 | 50.49378 | 5.16120 | 3844 ft | 211 kts | 109° |
| 2026-04-25 20:00 | 50.48833 | 5.18182 | 3633 ft | 206 kts | 108° |
| 2026-04-25 20:01 | 50.49474 | 5.21879 | 3247 ft | 179 kts | 41° |
| 2026-04-25 20:01 | 50.50333 | 5.23243 | 3059 ft | 177 kts | 43° |
| 2026-04-25 20:01 | 50.51174 | 5.24590 | 3017 ft | 170 kts | 43° |
| 2026-04-25 20:02 | 50.51982 | 5.25870 | 3014 ft | 166 kts | 43° |
| 2026-04-25 20:02 | 50.52778 | 5.27125 | 3018 ft | 168 kts | 43° |
| 2026-04-25 20:02 | 50.53612 | 5.28436 | 3021 ft | 172 kts | 42° |
| 2026-04-25 20:02 | 50.54444 | 5.29748 | 3065 ft | 170 kts | 42° |
| 2026-04-25 20:03 | 50.55276 | 5.31053 | 2816 ft | 169 kts | 42° |
| 2026-04-25 20:03 | 50.56094 | 5.32345 | 2580 ft | 165 kts | 42° |
| 2026-04-25 20:03 | 50.56877 | 5.33579 | 2389 ft | 158 kts | 42° |
| 2026-04-25 20:03 | 50.57630 | 5.34765 | 2160 ft | 152 kts | 42° |
| 2026-04-25 20:04 | 50.58353 | 5.35905 | 1944 ft | 141 kts | 42° |
| 2026-04-25 20:04 | 50.58981 | 5.36894 | 1761 ft | 131 kts | 42° |
| 2026-04-25 20:04 | 50.59616 | 5.37896 | 1578 ft | 123 kts | 42° |
| 2026-04-25 20:04 | 50.60203 | 5.38821 | 1417 ft | 118 kts | 43° |
| 2026-04-25 20:05 | 50.60790 | 5.39745 | 1284 ft | 128 kts | 43° |
| 2026-04-25 20:05 | 50.61404 | 5.40719 | 1107 ft | 125 kts | 43° |
| 2026-04-25 20:05 | 50.62004 | 5.41666 | 942 ft | 123 kts | 43° |
| 2026-04-25 20:05 | 50.62580 | 5.42580 | 787 ft | 121 kts | 44° |
| 2026-04-25 20:06 | 50.63165 | 5.43514 | 652 ft | 114 kts | 43° |
| 2026-04-25 20:06 | 50.63682 | 5.44325 | 617 ft | 92 kts | 45° |
| 2026-04-25 20:06 | 50.63931 | 5.44789 | 613 ft | 36 kts | 65° |
| 2026-04-25 20:06 | 50.63983 | 5.45056 | 616 ft | 17 kts | 77° |
| 2026-04-25 20:07 | 50.63985 | 5.45074 | 616 ft | 0 kts | 77° |
| 2026-04-25 20:08 | 50.63986 | 5.45077 | 616 ft | 1 kts | 77° |
| 2026-04-25 20:08 | 50.63992 | 5.45120 | 616 ft | 7 kts | 77° |
| 2026-04-25 20:08 | 50.64021 | 5.45221 | 616 ft | 13 kts | 47° |
| 2026-04-25 20:08 | 50.64094 | 5.45335 | 613 ft | 16 kts | 44° |
| 2026-04-25 20:09 | 50.64172 | 5.45460 | 613 ft | 16 kts | 45° |
| 2026-04-25 20:09 | 50.64240 | 5.45564 | 615 ft | 15 kts | 44° |
| 2026-04-25 20:09 | 50.64318 | 5.45687 | 615 ft | 15 kts | 47° |
| 2026-04-25 20:09 | 50.64386 | 5.45800 | 618 ft | 13 kts | 46° |
| 2026-04-25 20:10 | 50.64407 | 5.45834 | 617 ft | 14 kts | 45° |
| 2026-04-25 20:10 | 50.64450 | 5.45917 | 618 ft | 1 kts | 118° |
| 2026-04-25 20:10 | 50.64442 | 5.45935 | 619 ft | 1 kts | 128° |
| 2026-04-25 20:10 | 50.64421 | 5.45970 | 621 ft | 8 kts | 134° |
| 2026-04-25 20:11 | 50.64396 | 5.46010 | 623 ft | 0 kts | 135° |